createdAt,value
2023-05-23T00:02:15.979Z,15.81
2023-05-23T00:05:02.237Z,15.66
2023-05-23T00:07:48.034Z,15.76
2023-05-23T00:10:34.104Z,16.13
2023-05-23T00:13:19.911Z,16.61
2023-05-23T00:16:05.823Z,16.59
2023-05-23T00:18:51.772Z,16.72
2023-05-23T00:21:37.941Z,16.05
2023-05-23T00:24:24.055Z,15.81
2023-05-23T00:27:09.983Z,16.32
2023-05-23T00:29:55.831Z,16.26
2023-05-23T00:32:41.850Z,16.51
2023-05-23T00:35:27.800Z,16.32
2023-05-23T00:38:13.744Z,15.63
2023-05-23T00:40:59.747Z,15.61
2023-05-23T00:43:45.737Z,15.39
2023-05-23T00:46:31.854Z,15.40
2023-05-23T00:49:17.785Z,15.31
2023-05-23T00:52:03.665Z,15.58
2023-05-23T00:54:49.502Z,15.73
2023-05-23T00:57:35.282Z,15.49
2023-05-23T01:00:21.216Z,15.73
2023-05-23T01:03:07.786Z,15.14
2023-05-23T01:05:54.174Z,14.80
2023-05-23T01:08:40.101Z,14.90
2023-05-23T01:11:26.103Z,14.79
2023-05-23T01:14:11.917Z,14.60
2023-05-23T01:16:57.935Z,14.33
2023-05-23T01:19:45.914Z,14.49
2023-05-23T01:22:31.759Z,14.54
2023-05-23T01:25:17.718Z,14.43
2023-05-23T01:28:03.624Z,14.50
2023-05-23T01:30:49.643Z,14.49
2023-05-23T01:33:35.517Z,14.31
2023-05-23T01:36:21.376Z,14.47
2023-05-23T01:39:07.382Z,14.64
2023-05-23T01:41:53.257Z,14.29
2023-05-23T01:44:39.216Z,13.81
2023-05-23T01:47:25.113Z,13.70
2023-05-23T01:50:11.016Z,13.45
2023-05-23T01:52:56.890Z,13.31
2023-05-23T01:55:42.826Z,13.26
2023-05-23T01:58:30.681Z,13.20
2023-05-23T02:01:16.778Z,13.12
2023-05-23T02:04:02.736Z,13.22
2023-05-23T02:06:48.788Z,13.40
2023-05-23T02:09:34.735Z,13.67
2023-05-23T02:12:20.476Z,13.69
2023-05-23T02:15:08.344Z,13.79
2023-05-23T02:17:54.373Z,13.69
2023-05-23T02:20:40.356Z,13.61
2023-05-23T02:23:26.277Z,13.52
2023-05-23T02:26:12.249Z,13.24
2023-05-23T02:29:00.104Z,13.22
2023-05-23T02:31:46.195Z,13.41
2023-05-23T02:34:32.505Z,13.73
2023-05-23T02:37:18.258Z,13.96
2023-05-23T02:40:04.266Z,13.94
2023-05-23T02:42:50.190Z,13.82
2023-05-23T02:45:36.028Z,13.86
2023-05-23T02:48:21.995Z,13.81
2023-05-23T02:51:08.180Z,13.80
2023-05-23T02:53:54.169Z,13.54
2023-05-23T02:56:40.027Z,13.28
2023-05-23T02:59:25.921Z,13.22
2023-05-23T03:02:12.360Z,13.19
2023-05-23T03:04:58.590Z,13.90
2023-05-23T03:07:44.435Z,14.00
2023-05-23T03:10:30.430Z,14.27
2023-05-23T03:13:16.336Z,13.85
2023-05-23T03:16:02.259Z,13.66
2023-05-23T03:18:48.405Z,13.77
2023-05-23T03:21:34.373Z,13.82
2023-05-23T03:24:20.328Z,14.47
2023-05-23T03:27:06.189Z,14.85
2023-05-23T03:29:51.973Z,15.61
2023-05-23T03:32:38.014Z,15.81
2023-05-23T03:35:24.151Z,16.19
2023-05-23T03:38:10.083Z,16.82
2023-05-23T03:40:56.060Z,16.26
2023-05-23T03:43:41.952Z,15.61
2023-05-23T03:46:27.974Z,14.75
2023-05-23T03:49:14.219Z,14.33
2023-05-23T03:51:59.979Z,14.29
2023-05-23T03:54:45.820Z,14.66
2023-05-23T03:57:31.629Z,15.19
2023-05-23T04:00:17.521Z,14.78
2023-05-23T04:03:03.554Z,14.02
2023-05-23T04:05:49.786Z,14.02
2023-05-23T04:08:36.323Z,13.60
2023-05-23T04:11:22.303Z,13.33
2023-05-23T04:14:08.153Z,13.07
2023-05-23T04:16:54.049Z,13.18
2023-05-23T04:19:39.935Z,13.18
2023-05-23T04:22:25.882Z,13.36
2023-05-23T04:25:11.902Z,13.67
2023-05-23T04:27:57.781Z,14.21
2023-05-23T04:30:43.808Z,14.62
2023-05-23T04:33:29.770Z,14.77
2023-05-23T04:36:15.712Z,14.98
2023-05-23T04:39:01.751Z,14.97
2023-05-23T04:41:47.757Z,15.30
2023-05-23T04:44:33.715Z,15.58
2023-05-23T04:47:20.117Z,15.75
2023-05-23T04:50:06.045Z,15.83
2023-05-23T04:52:52.163Z,16.43
2023-05-23T04:55:38.138Z,16.12
2023-05-23T04:58:24.462Z,15.99
2023-05-23T05:01:10.588Z,15.63
2023-05-23T05:03:56.582Z,16.21
2023-05-23T05:06:42.613Z,16.14
2023-05-23T05:09:28.697Z,15.85
2023-05-23T05:12:14.443Z,15.89
2023-05-23T05:15:00.440Z,15.44
2023-05-23T05:17:48.940Z,16.00
2023-05-23T05:20:35.749Z,16.07
2023-05-23T05:23:21.650Z,16.44
2023-05-23T05:26:07.674Z,17.25
2023-05-23T05:28:54.577Z,16.81
2023-05-23T05:31:40.532Z,16.90
2023-05-23T05:34:26.496Z,17.24
2023-05-23T05:37:12.360Z,17.73
2023-05-23T05:39:58.334Z,17.60
2023-05-23T05:42:44.281Z,17.64
2023-05-23T05:45:30.091Z,17.33
2023-05-23T05:48:16.225Z,17.74
2023-05-23T05:51:02.423Z,17.10
2023-05-23T05:53:48.355Z,17.15
2023-05-23T05:56:34.283Z,17.55
2023-05-23T05:59:20.154Z,16.82
2023-05-23T06:02:06.026Z,17.92
2023-05-23T06:04:51.917Z,18.09
2023-05-23T06:07:37.867Z,18.92
2023-05-23T06:10:23.983Z,19.01
2023-05-23T06:13:10.269Z,19.11
2023-05-23T06:15:56.155Z,19.32
2023-05-23T06:18:42.168Z,19.36
2023-05-23T06:21:28.193Z,19.07
2023-05-23T06:24:14.179Z,18.91
2023-05-23T06:27:00.065Z,18.98
2023-05-23T06:29:45.963Z,19.13
2023-05-23T06:32:33.169Z,19.31
2023-05-23T06:35:19.439Z,18.69
2023-05-23T06:38:05.376Z,18.01
2023-05-23T06:40:51.448Z,18.61
2023-05-23T06:43:37.261Z,18.57
2023-05-23T06:46:23.390Z,18.03
2023-05-23T06:49:14.723Z,17.83
2023-05-23T06:52:01.437Z,17.82
2023-05-23T06:54:47.305Z,17.66
2023-05-23T06:57:33.293Z,17.11
2023-05-23T07:00:19.149Z,17.54
2023-05-23T07:03:05.257Z,17.97
2023-05-23T07:05:52.137Z,17.51
2023-05-23T07:08:38.427Z,17.36
2023-05-23T07:11:24.438Z,17.41
2023-05-23T07:14:10.395Z,16.80
2023-05-23T07:16:56.284Z,17.21
2023-05-23T07:19:42.235Z,18.20
2023-05-23T07:22:28.141Z,18.56
2023-05-23T07:25:14.201Z,17.81
2023-05-23T07:28:00.180Z,17.23
2023-05-23T07:30:46.084Z,16.88
2023-05-23T07:33:32.097Z,17.33
2023-05-23T07:36:17.959Z,17.11
2023-05-23T07:39:03.984Z,17.72
2023-05-23T07:41:50.037Z,17.57
2023-05-23T07:44:36.006Z,17.06
2023-05-23T07:47:22.028Z,16.93
2023-05-23T07:50:07.997Z,16.94
2023-05-23T07:52:53.814Z,17.06
2023-05-23T07:55:39.726Z,16.95
2023-05-23T07:58:25.537Z,16.49
2023-05-23T08:01:11.544Z,17.00
2023-05-23T08:03:57.572Z,16.55
2023-05-23T08:06:52.090Z,16.77
2023-05-23T08:09:49.389Z,16.71
2023-05-23T08:12:37.410Z,17.09
2023-05-23T08:15:23.443Z,17.15
2023-05-23T08:18:09.437Z,17.06
2023-05-23T08:20:55.847Z,17.24
2023-05-23T08:23:41.840Z,17.47
2023-05-23T08:26:27.906Z,16.85
2023-05-23T08:29:13.955Z,17.44
2023-05-23T08:31:59.831Z,17.61
2023-05-23T08:34:45.877Z,17.33
2023-05-23T08:37:31.953Z,17.41
2023-05-23T08:40:17.831Z,17.11
2023-05-23T08:43:03.935Z,17.03
2023-05-23T08:45:49.950Z,17.30
2023-05-23T08:48:35.866Z,17.14
2023-05-23T08:51:21.749Z,17.49
2023-05-23T08:54:07.707Z,17.32
2023-05-23T08:56:53.741Z,17.46
2023-05-23T08:59:39.631Z,18.03
2023-05-23T09:02:25.561Z,18.04
2023-05-23T09:05:11.536Z,18.42
2023-05-23T09:07:57.427Z,17.98
2023-05-23T09:10:43.310Z,17.72
2023-05-23T09:13:29.417Z,18.18
2023-05-23T09:16:15.400Z,17.83
2023-05-23T09:19:01.335Z,17.80
2023-05-23T09:21:47.449Z,18.44
2023-05-23T09:24:33.326Z,18.60
2023-05-23T09:27:19.340Z,18.87
2023-05-23T09:30:05.340Z,18.88
2023-05-23T09:32:51.336Z,18.94
2023-05-23T09:35:37.366Z,18.65
2023-05-23T09:38:23.234Z,18.42
2023-05-23T09:41:09.200Z,18.38
2023-05-23T09:43:55.301Z,18.21
2023-05-23T09:46:41.242Z,17.79
2023-05-23T09:49:27.540Z,18.36
2023-05-23T09:52:13.380Z,18.40
2023-05-23T09:54:59.401Z,18.56
2023-05-23T09:57:45.306Z,17.93
2023-05-23T10:00:31.283Z,18.49
2023-05-23T10:03:17.323Z,18.58
2023-05-23T10:06:03.385Z,18.45
2023-05-23T10:08:49.242Z,18.67
2023-05-23T10:11:35.188Z,18.38
2023-05-23T10:14:20.987Z,18.22
2023-05-23T10:17:06.929Z,18.73
2023-05-23T10:19:53.328Z,18.77
2023-05-23T10:22:39.192Z,18.80
2023-05-23T10:25:25.240Z,19.18
2023-05-23T10:28:11.170Z,18.80
2023-05-23T10:30:57.125Z,18.96
2023-05-23T10:33:43.302Z,18.71
2023-05-23T10:36:29.254Z,18.83
2023-05-23T10:39:15.172Z,18.91
2023-05-23T10:42:01.139Z,18.97
2023-05-23T10:44:47.144Z,18.71
2023-05-23T10:47:33.062Z,18.76
2023-05-23T10:50:19.010Z,18.76
2023-05-23T10:53:04.916Z,18.91
2023-05-23T10:55:50.789Z,18.70
2023-05-23T10:58:36.670Z,18.56
2023-05-23T11:01:22.666Z,18.88
2023-05-23T11:04:08.840Z,18.94
2023-05-23T11:06:54.829Z,18.61
2023-05-23T11:09:40.771Z,19.18
2023-05-23T11:12:26.870Z,18.64
2023-05-23T11:15:12.675Z,19.16
2023-05-23T11:17:58.748Z,18.95
2023-05-23T11:20:45.018Z,18.74
2023-05-23T11:23:31.011Z,18.67
2023-05-23T11:26:16.893Z,18.84
2023-05-23T11:29:02.764Z,18.84
2023-05-23T11:31:51.866Z,19.22
2023-05-23T11:34:37.816Z,18.90
2023-05-23T11:37:24.963Z,19.66
2023-05-23T11:40:13.005Z,19.43
2023-05-23T11:42:59.251Z,19.13
2023-05-23T11:45:45.217Z,19.29
2023-05-23T11:48:31.112Z,18.83
2023-05-23T11:51:17.111Z,19.55
2023-05-23T11:54:02.969Z,19.36
2023-05-23T11:56:48.801Z,19.39
2023-05-23T11:59:34.752Z,19.24
2023-05-23T12:02:20.708Z,19.65
2023-05-23T12:05:06.780Z,19.44
2023-05-23T12:07:52.711Z,19.60
2023-05-23T12:10:38.669Z,19.44
2023-05-23T12:13:24.689Z,20.00
2023-05-23T12:16:10.649Z,19.89
2023-05-23T12:18:57.122Z,20.15
2023-05-23T12:21:43.484Z,20.12
2023-05-23T12:24:29.429Z,19.25
2023-05-23T12:27:15.595Z,19.86
2023-05-23T12:30:01.397Z,20.23
2023-05-23T12:32:47.310Z,20.17
2023-05-23T12:35:33.676Z,19.99
2023-05-23T12:38:19.670Z,19.81
2023-05-23T12:41:05.629Z,19.58
2023-05-23T12:43:51.605Z,19.97
2023-05-23T12:46:37.494Z,20.05
2023-05-23T12:49:23.409Z,20.22
2023-05-23T12:52:09.368Z,20.44
2023-05-23T12:54:55.301Z,20.41
2023-05-23T12:57:41.239Z,20.57
2023-05-23T13:00:27.185Z,20.52
2023-05-23T13:03:13.276Z,20.62
2023-05-23T13:06:01.201Z,20.86
2023-05-23T13:08:47.118Z,20.84
2023-05-23T13:11:33.219Z,20.92
2023-05-23T13:14:19.175Z,20.92
2023-05-23T13:17:05.125Z,20.48
2023-05-23T13:19:51.055Z,20.18
2023-05-23T13:22:36.956Z,20.40
2023-05-23T13:25:22.979Z,20.33
2023-05-23T13:28:08.939Z,21.08
2023-05-23T13:30:54.781Z,20.90
2023-05-23T13:33:40.809Z,20.62
2023-05-23T13:36:26.728Z,20.31
2023-05-23T13:39:12.739Z,19.88
2023-05-23T13:41:58.756Z,20.09
2023-05-23T13:44:44.726Z,20.89
2023-05-23T13:47:30.758Z,21.15
2023-05-23T13:50:16.704Z,20.81
2023-05-23T13:53:02.545Z,20.54
2023-05-23T13:55:48.546Z,21.26
2023-05-23T13:58:34.557Z,20.33
2023-05-23T14:01:20.413Z,20.59
2023-05-23T14:04:07.307Z,20.48
2023-05-23T14:06:53.459Z,20.98
2023-05-23T14:09:41.397Z,20.30
2023-05-23T14:12:27.483Z,20.71
2023-05-23T14:15:13.530Z,21.25
2023-05-23T14:17:59.291Z,21.12
2023-05-23T14:20:45.640Z,20.54
2023-05-23T14:23:31.560Z,21.05
2023-05-23T14:26:17.505Z,20.89
2023-05-23T14:29:03.498Z,20.88
2023-05-23T14:31:49.496Z,20.96
2023-05-23T14:34:35.462Z,21.22
2023-05-23T14:37:21.392Z,21.02
2023-05-23T14:40:09.260Z,21.09
2023-05-23T14:42:55.186Z,20.94
2023-05-23T14:45:41.200Z,20.75
2023-05-23T14:48:27.495Z,20.63
2023-05-23T14:51:23.660Z,20.62
2023-05-23T14:54:13.250Z,20.71
2023-05-23T14:57:01.194Z,21.18
2023-05-23T14:59:47.215Z,20.96
2023-05-23T15:02:33.214Z,20.74
2023-05-23T15:05:19.415Z,20.74
2023-05-23T15:08:05.264Z,20.92
2023-05-23T15:10:51.213Z,20.82
2023-05-23T15:13:37.175Z,20.75
2023-05-23T15:16:23.109Z,21.36
2023-05-23T15:19:09.438Z,21.01
2023-05-23T15:21:55.715Z,20.77
2023-05-23T15:24:41.638Z,20.92
2023-05-23T15:27:27.590Z,20.81
2023-05-23T15:30:13.509Z,20.75
2023-05-23T15:33:01.525Z,21.16
2023-05-23T15:35:47.854Z,20.67
2023-05-23T15:38:33.946Z,20.97
2023-05-23T15:41:19.843Z,20.99
2023-05-23T15:44:05.985Z,21.05
2023-05-23T15:46:52.022Z,20.89
2023-05-23T15:49:38.078Z,21.23
2023-05-23T15:52:23.973Z,21.14
2023-05-23T15:55:09.996Z,21.10
2023-05-23T15:57:56.022Z,21.51
2023-05-23T16:00:42.095Z,20.57
2023-05-23T16:03:28.262Z,20.33
2023-05-23T16:06:14.354Z,20.24
2023-05-23T16:09:00.329Z,20.60
2023-05-23T16:11:46.166Z,20.77
2023-05-23T16:14:32.089Z,20.46
2023-05-23T16:17:18.034Z,20.47
2023-05-23T16:20:04.264Z,20.12
2023-05-23T16:22:50.700Z,19.99
2023-05-23T16:25:36.584Z,20.36
2023-05-23T16:28:22.606Z,20.00
2023-05-23T16:31:08.551Z,19.83
2023-05-23T16:33:54.462Z,19.78
2023-05-23T16:36:40.376Z,20.01
2023-05-23T16:39:26.226Z,19.71
2023-05-23T16:42:12.624Z,19.73
2023-05-23T16:44:58.743Z,19.56
2023-05-23T16:47:44.683Z,19.62
2023-05-23T16:50:30.688Z,19.64
2023-05-23T16:53:16.531Z,19.56
2023-05-23T16:56:02.545Z,19.31
2023-05-23T16:58:48.633Z,19.25
2023-05-23T17:01:34.656Z,18.88
2023-05-23T17:04:20.764Z,18.76
2023-05-23T17:07:07.081Z,18.85
2023-05-23T17:09:53.006Z,18.62
2023-05-23T17:12:38.895Z,18.40
2023-05-23T17:15:24.805Z,18.48
2023-05-23T17:18:10.804Z,18.38
2023-05-23T17:20:57.263Z,18.40
2023-05-23T17:23:43.099Z,18.23
2023-05-23T17:26:29.123Z,18.18
2023-05-23T17:29:17.128Z,18.09
2023-05-23T17:32:03.216Z,18.20
2023-05-23T17:34:49.507Z,17.78
2023-05-23T17:37:36.314Z,17.79
2023-05-23T17:40:22.343Z,17.64
2023-05-23T17:43:08.238Z,17.72
2023-05-23T17:45:56.207Z,17.86
2023-05-23T17:48:46.868Z,17.50
2023-05-23T17:51:33.427Z,17.59
2023-05-23T17:54:19.430Z,17.61
2023-05-23T17:57:05.475Z,17.57
2023-05-23T17:59:51.286Z,17.79
2023-05-23T18:02:37.217Z,17.79
2023-05-23T18:05:23.185Z,17.42
2023-05-23T18:08:11.133Z,17.41
2023-05-23T18:10:57.058Z,17.26
2023-05-23T18:13:42.974Z,17.44
2023-05-23T18:16:28.942Z,17.37
2023-05-23T18:19:15.011Z,17.35
2023-05-23T18:22:01.205Z,17.53
2023-05-23T18:24:47.311Z,17.29
2023-05-23T18:27:33.233Z,17.30
2023-05-23T18:30:19.210Z,17.17
2023-05-23T18:33:05.361Z,17.52
2023-05-23T18:35:51.587Z,17.45
2023-05-23T18:38:37.543Z,17.29
2023-05-23T18:41:23.579Z,17.12
2023-05-23T18:44:09.517Z,17.26
2023-05-23T18:46:55.541Z,17.02
2023-05-23T18:49:41.779Z,16.92
2023-05-23T18:52:27.696Z,16.81
2023-05-23T18:55:13.618Z,16.87
2023-05-23T18:57:59.525Z,16.58
2023-05-23T19:00:45.516Z,16.68
2023-05-23T19:03:31.673Z,16.63
2023-05-23T19:06:17.913Z,16.45
2023-05-23T19:09:04.021Z,16.48
2023-05-23T19:11:49.998Z,16.22
2023-05-23T19:14:35.955Z,16.36
2023-05-23T19:17:21.951Z,16.24
2023-05-23T19:20:07.851Z,16.14
2023-05-23T19:22:53.851Z,16.25
2023-05-23T19:25:39.883Z,16.15
2023-05-23T19:28:25.797Z,16.16
2023-05-23T19:31:11.639Z,16.01
2023-05-23T19:33:57.479Z,15.93
2023-05-23T19:36:43.291Z,15.85
2023-05-23T19:39:29.232Z,15.77
2023-05-23T19:42:15.146Z,15.85
2023-05-23T19:45:01.034Z,15.85
2023-05-23T19:47:47.249Z,15.89
2023-05-23T19:50:33.157Z,15.57
2023-05-23T19:53:19.223Z,15.52
2023-05-23T19:56:05.100Z,15.64
2023-05-23T19:58:51.039Z,15.69
2023-05-23T20:01:37.189Z,15.74
2023-05-23T20:04:23.094Z,15.56
2023-05-23T20:07:09.122Z,15.39
2023-05-23T20:09:55.123Z,15.29
2023-05-23T20:12:40.994Z,15.23
2023-05-23T20:15:38.542Z,15.30
2023-05-23T20:18:25.854Z,15.31
2023-05-23T20:21:11.918Z,15.21
2023-05-23T20:23:57.860Z,15.26
2023-05-23T20:26:43.773Z,15.02
2023-05-23T20:29:29.729Z,15.10
2023-05-23T20:32:15.512Z,14.99
2023-05-23T20:35:01.445Z,14.99
2023-05-23T20:37:49.335Z,15.07
2023-05-23T20:40:35.261Z,15.09
2023-05-23T20:43:21.309Z,14.89
2023-05-23T20:46:07.302Z,14.82
2023-05-23T20:48:53.081Z,14.99
2023-05-23T20:51:39.217Z,14.78
2023-05-23T20:54:25.585Z,14.64
2023-05-23T20:57:11.564Z,14.66
2023-05-23T20:59:57.386Z,14.33
2023-05-23T21:02:45.407Z,14.22
2023-05-23T21:05:31.642Z,14.33
2023-05-23T21:08:17.688Z,14.33
2023-05-23T21:11:03.644Z,14.26
2023-05-23T21:13:49.650Z,14.33
2023-05-23T21:16:35.713Z,14.07
2023-05-23T21:19:21.599Z,14.15
2023-05-23T21:22:07.624Z,14.09
2023-05-23T21:24:53.530Z,14.09
2023-05-23T21:27:39.361Z,14.02
2023-05-23T21:30:26.384Z,13.93
2023-05-23T21:33:12.849Z,13.84
2023-05-23T21:36:00.761Z,13.94
2023-05-23T21:38:46.856Z,13.85
2023-05-23T21:41:32.865Z,13.84
2023-05-23T21:44:18.894Z,13.70
2023-05-23T21:47:05.208Z,13.84
2023-05-23T21:49:51.071Z,13.64
2023-05-23T21:52:37.039Z,13.58
2023-05-23T21:55:22.934Z,13.57
2023-05-23T21:58:08.914Z,13.52
2023-05-23T22:00:54.878Z,13.47
2023-05-23T22:03:40.868Z,13.49
2023-05-23T22:06:27.061Z,13.40
2023-05-23T22:09:13.001Z,13.37
2023-05-23T22:11:59.007Z,13.27
2023-05-23T22:14:45.053Z,13.27
2023-05-23T22:17:31.091Z,13.29
2023-05-23T22:20:17.113Z,13.15
2023-05-23T22:23:03.018Z,13.19
2023-05-23T22:25:48.775Z,13.11
2023-05-23T22:28:35.015Z,13.06
2023-05-23T22:31:21.001Z,13.06
2023-05-23T22:34:06.876Z,12.99
2023-05-23T22:36:52.882Z,12.98
2023-05-23T22:39:38.798Z,13.02
2023-05-23T22:42:24.706Z,12.90
2023-05-23T22:45:10.611Z,12.88
2023-05-23T22:47:56.530Z,12.89
2023-05-23T22:50:42.991Z,12.88
2023-05-23T22:53:29.420Z,12.86
2023-05-23T22:56:15.360Z,12.88
2023-05-23T22:59:01.307Z,12.83
2023-05-23T23:01:47.272Z,12.66
2023-05-23T23:04:33.179Z,12.78
2023-05-23T23:07:19.151Z,12.77
2023-05-23T23:10:04.855Z,12.72
2023-05-23T23:12:50.733Z,12.70
2023-05-23T23:15:36.932Z,12.66
2023-05-23T23:18:22.850Z,12.46
2023-05-23T23:21:08.800Z,12.45
2023-05-23T23:23:54.982Z,12.47
2023-05-23T23:26:40.822Z,12.48
2023-05-23T23:29:26.883Z,12.49
2023-05-23T23:32:12.819Z,12.54
2023-05-23T23:34:58.729Z,12.45
2023-05-23T23:37:44.645Z,12.54
2023-05-23T23:40:30.616Z,12.40
2023-05-23T23:43:16.637Z,12.26
2023-05-23T23:46:02.689Z,12.23
2023-05-23T23:48:48.546Z,12.30
2023-05-23T23:51:34.606Z,12.16
2023-05-23T23:54:20.533Z,12.22
2023-05-23T23:57:06.512Z,12.34
2023-05-23T23:59:52.399Z,12.15
